ウランバートル の空港の天気 - METARとTAF

チンギスハーン国際空港 ( ZMUB / ULN ) - モンゴル ウランバートル
飛行場実況気象(Metar)
観測時間07/29 11:30 ULAT (07/29 03:30 UTC)
風向・風速西南西 5m/s
視程10km以上
天気現象
少しの雲 雲底高度 910m
全天の4割程度の雲 雲底高度 1010m
全天の4割程度の雲 雲底高度 3050m
気温22℃
湿度57%
気圧1005hPa
METARZMUB 290330Z 24005MPS 9999 FEW030CB SCT033 SCT100 22/13 Q1005 NOSIG RMK QFE647.6 56 MOP
過去の天気等 Google飛行場航空写真 Wunderground天気予報

過去48時間のMETAR

飛行場予報(TAF)
発表時間: 7/29 06:40 ULAT (7/28 22:40 UTC)
予報対象時間: 29日8時 ULAT ~ 30日14時 ULAT
風向・風速不定 2m/s
視程10km以上
少しの積乱雲 雲底高度 910m
全天の4割程度の雲 雲底高度 1010m
29日11時 ULAT ~ 29日20時 ULAT に 確率 40% で一時的に
風向・風速不定 8m/s
天気現象雷雨
全天の4割程度の積乱雲 雲底高度 820m
全天の4割程度の雲 雲底高度 910m
TAF ZMUB 282240Z 2900/3006 VRB02MPS 9999 FEW030CB SCT033 TX23/2907Z TN12/2923Z
PROB40 TEMPO 2903/2912 VRB08MPS TSRA SCT027CB SCT030